sensor_id;sensor_type;location;lat;lon;timestamp;P1;durP1;ratioP1;P2;durP2;ratioP2
60472;SDS011;46318;52.716;6.444;2024-03-07T00:00:05;65.13;;;47.85;;
60472;SDS011;46318;52.716;6.444;2024-03-07T00:02:40;69.28;;;49.67;;
60472;SDS011;46318;52.716;6.444;2024-03-07T00:05:07;69.85;;;47.95;;
60472;SDS011;46318;52.716;6.444;2024-03-07T00:07:33;67.75;;;49.25;;
60472;SDS011;46318;52.716;6.444;2024-03-07T00:10:00;68.35;;;48.58;;
60472;SDS011;46318;52.716;6.444;2024-03-07T00:12:28;65.57;;;48.15;;
60472;SDS011;46318;52.716;6.444;2024-03-07T00:14:55;64.47;;;48.92;;
60472;SDS011;46318;52.716;6.444;2024-03-07T00:17:21;67.60;;;49.75;;
60472;SDS011;46318;52.716;6.444;2024-03-07T00:19:48;69.50;;;48.50;;
60472;SDS011;46318;52.716;6.444;2024-03-07T00:22:14;67.85;;;49.38;;
60472;SDS011;46318;52.716;6.444;2024-03-07T00:24:40;67.60;;;50.60;;
60472;SDS011;46318;52.716;6.444;2024-03-07T00:27:07;72.30;;;51.03;;
60472;SDS011;46318;52.716;6.444;2024-03-07T00:29:33;68.40;;;50.33;;
60472;SDS011;46318;52.716;6.444;2024-03-07T00:32:03;67.68;;;51.00;;
60472;SDS011;46318;52.716;6.444;2024-03-07T00:34:29;70.63;;;50.55;;
60472;SDS011;46318;52.716;6.444;2024-03-07T00:36:55;70.38;;;51.13;;
60472;SDS011;46318;52.716;6.444;2024-03-07T00:39:23;80.00;;;53.10;;
60472;SDS011;46318;52.716;6.444;2024-03-07T00:41:49;70.00;;;50.88;;
60472;SDS011;46318;52.716;6.444;2024-03-07T00:44:14;74.20;;;52.55;;
60472;SDS011;46318;52.716;6.444;2024-03-07T00:46:41;66.80;;;50.83;;
60472;SDS011;46318;52.716;6.444;2024-03-07T00:49:07;70.65;;;52.65;;
60472;SDS011;46318;52.716;6.444;2024-03-07T00:51:33;68.95;;;51.95;;
60472;SDS011;46318;52.716;6.444;2024-03-07T00:54:00;67.22;;;50.25;;
60472;SDS011;46318;52.716;6.444;2024-03-07T00:56:26;67.45;;;49.92;;
60472;SDS011;46318;52.716;6.444;2024-03-07T00:58:53;66.80;;;49.60;;
60472;SDS011;46318;52.716;6.444;2024-03-07T01:01:19;66.45;;;50.38;;
60472;SDS011;46318;52.716;6.444;2024-03-07T01:03:45;65.78;;;47.97;;
60472;SDS011;46318;52.716;6.444;2024-03-07T01:06:11;66.15;;;48.72;;
60472;SDS011;46318;52.716;6.444;2024-03-07T01:08:37;60.80;;;47.40;;
60472;SDS011;46318;52.716;6.444;2024-03-07T01:11:04;60.55;;;46.40;;
60472;SDS011;46318;52.716;6.444;2024-03-07T01:13:40;61.92;;;47.63;;
60472;SDS011;46318;52.716;6.444;2024-03-07T01:16:06;60.60;;;46.97;;
60472;SDS011;46318;52.716;6.444;2024-03-07T01:18:33;61.67;;;48.38;;
60472;SDS011;46318;52.716;6.444;2024-03-07T01:21:02;59.17;;;44.63;;
60472;SDS011;46318;52.716;6.444;2024-03-07T01:23:30;54.95;;;45.13;;
60472;SDS011;46318;52.716;6.444;2024-03-07T01:25:59;54.17;;;42.35;;
60472;SDS011;46318;52.716;6.444;2024-03-07T01:28:26;54.42;;;43.10;;
60472;SDS011;46318;52.716;6.444;2024-03-07T01:30:57;53.65;;;42.53;;
60472;SDS011;46318;52.716;6.444;2024-03-07T01:33:23;52.80;;;40.95;;
60472;SDS011;46318;52.716;6.444;2024-03-07T01:35:49;50.45;;;39.55;;
60472;SDS011;46318;52.716;6.444;2024-03-07T01:38:15;47.88;;;38.63;;
60472;SDS011;46318;52.716;6.444;2024-03-07T01:40:44;49.28;;;41.17;;
60472;SDS011;46318;52.716;6.444;2024-03-07T01:43:10;45.85;;;37.72;;
60472;SDS011;46318;52.716;6.444;2024-03-07T01:45:36;46.75;;;38.40;;
60472;SDS011;46318;52.716;6.444;2024-03-07T01:48:04;46.25;;;39.00;;
60472;SDS011;46318;52.716;6.444;2024-03-07T01:50:31;50.78;;;40.17;;
60472;SDS011;46318;52.716;6.444;2024-03-07T01:52:58;42.65;;;35.63;;
60472;SDS011;46318;52.716;6.444;2024-03-07T01:55:24;43.45;;;36.60;;
60472;SDS011;46318;52.716;6.444;2024-03-07T01:57:52;45.92;;;37.97;;
60472;SDS011;46318;52.716;6.444;2024-03-07T02:00:24;40.03;;;35.60;;
60472;SDS011;46318;52.716;6.444;2024-03-07T02:02:50;46.25;;;37.55;;
60472;SDS011;46318;52.716;6.444;2024-03-07T02:05:18;40.80;;;34.80;;
60472;SDS011;46318;52.716;6.444;2024-03-07T02:07:46;43.17;;;34.53;;
60472;SDS011;46318;52.716;6.444;2024-03-07T02:10:12;41.38;;;34.08;;
60472;SDS011;46318;52.716;6.444;2024-03-07T02:12:38;39.53;;;34.17;;
60472;SDS011;46318;52.716;6.444;2024-03-07T02:15:04;41.47;;;35.80;;
60472;SDS011;46318;52.716;6.444;2024-03-07T02:17:30;41.35;;;34.03;;
60472;SDS011;46318;52.716;6.444;2024-03-07T02:19:57;46.28;;;37.15;;
60472;SDS011;46318;52.716;6.444;2024-03-07T02:22:23;40.58;;;34.38;;
60472;SDS011;46318;52.716;6.444;2024-03-07T02:24:51;46.42;;;36.88;;
60472;SDS011;46318;52.716;6.444;2024-03-07T02:27:18;38.65;;;32.67;;
60472;SDS011;46318;52.716;6.444;2024-03-07T02:29:44;40.83;;;33.85;;
60472;SDS011;46318;52.716;6.444;2024-03-07T02:32:10;38.20;;;32.22;;
60472;SDS011;46318;52.716;6.444;2024-03-07T02:34:36;39.67;;;33.45;;
60472;SDS011;46318;52.716;6.444;2024-03-07T02:37:02;39.28;;;32.63;;
60472;SDS011;46318;52.716;6.444;2024-03-07T02:39:28;42.58;;;33.92;;
60472;SDS011;46318;52.716;6.444;2024-03-07T02:41:57;41.58;;;34.47;;
60472;SDS011;46318;52.716;6.444;2024-03-07T02:44:23;37.30;;;32.08;;
60472;SDS011;46318;52.716;6.444;2024-03-07T02:46:48;41.60;;;33.90;;
60472;SDS011;46318;52.716;6.444;2024-03-07T02:49:14;37.55;;;33.00;;
60472;SDS011;46318;52.716;6.444;2024-03-07T02:51:40;38.13;;;32.75;;
60472;SDS011;46318;52.716;6.444;2024-03-07T02:54:09;38.53;;;32.17;;
60472;SDS011;46318;52.716;6.444;2024-03-07T02:56:34;38.42;;;32.35;;
60472;SDS011;46318;52.716;6.444;2024-03-07T02:59:00;38.13;;;33.90;;
60472;SDS011;46318;52.716;6.444;2024-03-07T03:01:26;37.78;;;33.65;;
60472;SDS011;46318;52.716;6.444;2024-03-07T03:03:52;38.75;;;34.50;;
60472;SDS011;46318;52.716;6.444;2024-03-07T03:06:18;41.03;;;32.20;;
60472;SDS011;46318;52.716;6.444;2024-03-07T03:08:46;39.22;;;32.63;;
60472;SDS011;46318;52.716;6.444;2024-03-07T03:11:15;40.60;;;33.75;;
60472;SDS011;46318;52.716;6.444;2024-03-07T03:13:41;39.30;;;32.28;;
60472;SDS011;46318;52.716;6.444;2024-03-07T03:16:07;41.47;;;32.05;;
60472;SDS011;46318;52.716;6.444;2024-03-07T03:18:34;39.42;;;34.28;;
60472;SDS011;46318;52.716;6.444;2024-03-07T03:21:01;37.33;;;32.45;;
60472;SDS011;46318;52.716;6.444;2024-03-07T03:23:28;38.85;;;31.73;;
60472;SDS011;46318;52.716;6.444;2024-03-07T03:25:54;38.15;;;31.88;;
60472;SDS011;46318;52.716;6.444;2024-03-07T03:28:20;39.08;;;32.28;;
60472;SDS011;46318;52.716;6.444;2024-03-07T03:30:47;40.53;;;33.08;;
60472;SDS011;46318;52.716;6.444;2024-03-07T03:33:14;38.05;;;32.40;;
60472;SDS011;46318;52.716;6.444;2024-03-07T03:35:40;40.50;;;32.08;;
60472;SDS011;46318;52.716;6.444;2024-03-07T03:38:07;40.40;;;33.30;;
60472;SDS011;46318;52.716;6.444;2024-03-07T03:40:33;39.78;;;32.83;;
60472;SDS011;46318;52.716;6.444;2024-03-07T03:42:59;35.65;;;30.63;;
60472;SDS011;46318;52.716;6.444;2024-03-07T03:45:28;38.05;;;31.45;;
60472;SDS011;46318;52.716;6.444;2024-03-07T03:47:54;38.45;;;31.05;;
60472;SDS011;46318;52.716;6.444;2024-03-07T03:50:20;35.67;;;31.75;;
60472;SDS011;46318;52.716;6.444;2024-03-07T03:52:49;37.33;;;31.65;;
60472;SDS011;46318;52.716;6.444;2024-03-07T03:55:15;37.95;;;31.55;;
60472;SDS011;46318;52.716;6.444;2024-03-07T03:57:41;38.53;;;31.25;;
60472;SDS011;46318;52.716;6.444;2024-03-07T04:00:09;40.78;;;33.58;;
60472;SDS011;46318;52.716;6.444;2024-03-07T04:02:43;39.28;;;32.30;;
60472;SDS011;46318;52.716;6.444;2024-03-07T04:05:13;35.72;;;31.83;;
60472;SDS011;46318;52.716;6.444;2024-03-07T04:07:40;41.30;;;33.75;;
60472;SDS011;46318;52.716;6.444;2024-03-07T04:10:07;38.08;;;31.52;;
60472;SDS011;46318;52.716;6.444;2024-03-07T04:12:38;37.33;;;31.45;;
60472;SDS011;46318;52.716;6.444;2024-03-07T04:15:06;36.88;;;31.67;;
60472;SDS011;46318;52.716;6.444;2024-03-07T04:17:34;37.45;;;32.65;;
60472;SDS011;46318;52.716;6.444;2024-03-07T04:20:01;38.67;;;33.15;;
60472;SDS011;46318;52.716;6.444;2024-03-07T04:22:31;36.65;;;31.38;;
60472;SDS011;46318;52.716;6.444;2024-03-07T04:24:58;36.00;;;31.65;;
60472;SDS011;46318;52.716;6.444;2024-03-07T04:27:26;38.40;;;31.50;;
60472;SDS011;46318;52.716;6.444;2024-03-07T04:29:52;40.92;;;33.45;;
60472;SDS011;46318;52.716;6.444;2024-03-07T04:32:18;41.67;;;33.38;;
60472;SDS011;46318;52.716;6.444;2024-03-07T04:34:44;37.78;;;33.17;;
60472;SDS011;46318;52.716;6.444;2024-03-07T04:37:10;41.25;;;33.40;;
60472;SDS011;46318;52.716;6.444;2024-03-07T04:39:37;38.45;;;32.53;;
60472;SDS011;46318;52.716;6.444;2024-03-07T04:42:07;42.13;;;35.25;;
60472;SDS011;46318;52.716;6.444;2024-03-07T04:44:34;41.58;;;33.55;;
60472;SDS011;46318;52.716;6.444;2024-03-07T04:47:02;36.40;;;31.95;;
60472;SDS011;46318;52.716;6.444;2024-03-07T04:49:29;39.90;;;32.88;;
60472;SDS011;46318;52.716;6.444;2024-03-07T04:51:57;40.90;;;33.80;;
60472;SDS011;46318;52.716;6.444;2024-03-07T04:54:24;40.85;;;32.97;;
60472;SDS011;46318;52.716;6.444;2024-03-07T04:56:52;38.55;;;32.85;;
60472;SDS011;46318;52.716;6.444;2024-03-07T04:59:19;38.88;;;32.28;;
60472;SDS011;46318;52.716;6.444;2024-03-07T05:01:46;36.80;;;31.80;;
60472;SDS011;46318;52.716;6.444;2024-03-07T05:04:15;37.65;;;31.75;;
60472;SDS011;46318;52.716;6.444;2024-03-07T05:06:41;38.33;;;32.35;;
60472;SDS011;46318;52.716;6.444;2024-03-07T05:09:08;40.20;;;32.38;;
60472;SDS011;46318;52.716;6.444;2024-03-07T05:11:46;38.05;;;33.13;;
60472;SDS011;46318;52.716;6.444;2024-03-07T05:14:12;37.72;;;31.13;;
60472;SDS011;46318;52.716;6.444;2024-03-07T05:16:38;36.20;;;30.73;;
60472;SDS011;46318;52.716;6.444;2024-03-07T05:19:04;36.78;;;30.60;;
60472;SDS011;46318;52.716;6.444;2024-03-07T05:21:30;37.58;;;30.52;;
60472;SDS011;46318;52.716;6.444;2024-03-07T05:23:58;36.58;;;31.02;;
60472;SDS011;46318;52.716;6.444;2024-03-07T05:26:26;37.25;;;31.20;;
60472;SDS011;46318;52.716;6.444;2024-03-07T05:28:52;34.75;;;30.95;;
60472;SDS011;46318;52.716;6.444;2024-03-07T05:31:20;35.80;;;30.02;;
60472;SDS011;46318;52.716;6.444;2024-03-07T05:33:46;42.05;;;33.42;;
60472;SDS011;46318;52.716;6.444;2024-03-07T05:36:13;36.80;;;31.35;;
60472;SDS011;46318;52.716;6.444;2024-03-07T05:38:42;40.08;;;32.80;;
60472;SDS011;46318;52.716;6.444;2024-03-07T05:41:12;37.47;;;31.50;;
60472;SDS011;46318;52.716;6.444;2024-03-07T05:43:38;36.55;;;31.55;;
60472;SDS011;46318;52.716;6.444;2024-03-07T05:46:05;40.90;;;32.95;;
60472;SDS011;46318;52.716;6.444;2024-03-07T05:48:35;39.50;;;32.38;;
60472;SDS011;46318;52.716;6.444;2024-03-07T05:51:01;39.22;;;33.47;;
60472;SDS011;46318;52.716;6.444;2024-03-07T05:53:27;37.63;;;32.40;;
60472;SDS011;46318;52.716;6.444;2024-03-07T05:55:53;38.25;;;31.80;;
60472;SDS011;46318;52.716;6.444;2024-03-07T05:58:19;38.15;;;31.15;;
60472;SDS011;46318;52.716;6.444;2024-03-07T06:00:46;36.72;;;32.42;;
60472;SDS011;46318;52.716;6.444;2024-03-07T06:03:16;40.25;;;33.65;;
60472;SDS011;46318;52.716;6.444;2024-03-07T06:05:43;35.83;;;30.55;;
60472;SDS011;46318;52.716;6.444;2024-03-07T06:08:13;45.80;;;34.88;;
60472;SDS011;46318;52.716;6.444;2024-03-07T06:10:43;38.55;;;32.28;;
60472;SDS011;46318;52.716;6.444;2024-03-07T06:13:13;39.13;;;33.08;;
60472;SDS011;46318;52.716;6.444;2024-03-07T06:15:45;38.20;;;32.33;;
60472;SDS011;46318;52.716;6.444;2024-03-07T06:18:12;38.92;;;32.67;;
60472;SDS011;46318;52.716;6.444;2024-03-07T06:20:40;37.97;;;33.03;;
60472;SDS011;46318;52.716;6.444;2024-03-07T06:23:07;36.22;;;31.92;;
60472;SDS011;46318;52.716;6.444;2024-03-07T06:25:34;35.83;;;30.30;;
60472;SDS011;46318;52.716;6.444;2024-03-07T06:28:10;38.25;;;32.35;;
60472;SDS011;46318;52.716;6.444;2024-03-07T06:30:36;39.83;;;34.08;;
60472;SDS011;46318;52.716;6.444;2024-03-07T06:33:04;40.03;;;32.65;;
60472;SDS011;46318;52.716;6.444;2024-03-07T06:35:31;38.13;;;32.40;;
60472;SDS011;46318;52.716;6.444;2024-03-07T06:38:00;36.92;;;31.77;;
60472;SDS011;46318;52.716;6.444;2024-03-07T06:40:26;38.35;;;33.45;;
60472;SDS011;46318;52.716;6.444;2024-03-07T06:42:51;36.92;;;32.88;;
60472;SDS011;46318;52.716;6.444;2024-03-07T06:45:18;38.38;;;32.70;;
60472;SDS011;46318;52.716;6.444;2024-03-07T06:47:44;39.05;;;32.28;;
60472;SDS011;46318;52.716;6.444;2024-03-07T06:50:10;38.97;;;33.88;;
60472;SDS011;46318;52.716;6.444;2024-03-07T06:52:39;40.00;;;34.15;;
60472;SDS011;46318;52.716;6.444;2024-03-07T06:55:05;38.05;;;33.33;;
60472;SDS011;46318;52.716;6.444;2024-03-07T06:57:33;38.63;;;32.80;;
60472;SDS011;46318;52.716;6.444;2024-03-07T07:00:01;37.67;;;33.35;;
60472;SDS011;46318;52.716;6.444;2024-03-07T07:02:36;39.90;;;32.55;;
60472;SDS011;46318;52.716;6.444;2024-03-07T07:05:09;40.83;;;34.20;;
60472;SDS011;46318;52.716;6.444;2024-03-07T07:07:40;39.75;;;34.38;;
60472;SDS011;46318;52.716;6.444;2024-03-07T07:10:07;38.97;;;33.60;;
60472;SDS011;46318;52.716;6.444;2024-03-07T07:12:44;41.53;;;34.67;;
60472;SDS011;46318;52.716;6.444;2024-03-07T07:15:11;38.33;;;32.83;;
60472;SDS011;46318;52.716;6.444;2024-03-07T07:17:40;38.30;;;33.28;;
60472;SDS011;46318;52.716;6.444;2024-03-07T07:20:10;38.55;;;33.35;;
60472;SDS011;46318;52.716;6.444;2024-03-07T07:22:39;37.00;;;32.65;;
60472;SDS011;46318;52.716;6.444;2024-03-07T07:25:05;39.58;;;34.05;;
60472;SDS011;46318;52.716;6.444;2024-03-07T07:27:39;36.83;;;32.67;;
60472;SDS011;46318;52.716;6.444;2024-03-07T07:30:16;39.83;;;33.65;;
60472;SDS011;46318;52.716;6.444;2024-03-07T07:32:44;39.63;;;34.47;;
60472;SDS011;46318;52.716;6.444;2024-03-07T07:35:11;38.55;;;34.10;;
60472;SDS011;46318;52.716;6.444;2024-03-07T07:37:38;36.10;;;32.20;;
60472;SDS011;46318;52.716;6.444;2024-03-07T07:40:05;38.10;;;33.17;;
60472;SDS011;46318;52.716;6.444;2024-03-07T07:42:40;36.15;;;31.67;;
60472;SDS011;46318;52.716;6.444;2024-03-07T07:45:08;35.22;;;30.77;;
60472;SDS011;46318;52.716;6.444;2024-03-07T07:50:10;39.47;;;32.50;;
60472;SDS011;46318;52.716;6.444;2024-03-07T07:52:57;36.33;;;31.65;;
60472;SDS011;46318;52.716;6.444;2024-03-07T07:55:24;37.63;;;32.90;;
60472;SDS011;46318;52.716;6.444;2024-03-07T07:57:57;35.72;;;31.83;;
60472;SDS011;46318;52.716;6.444;2024-03-07T08:00:25;35.28;;;31.05;;
60472;SDS011;46318;52.716;6.444;2024-03-07T08:03:03;39.58;;;33.63;;
60472;SDS011;46318;52.716;6.444;2024-03-07T08:05:34;35.70;;;31.80;;
60472;SDS011;46318;52.716;6.444;2024-03-07T08:08:05;36.92;;;32.53;;
60472;SDS011;46318;52.716;6.444;2024-03-07T08:10:33;37.72;;;32.78;;
60472;SDS011;46318;52.716;6.444;2024-03-07T08:13:01;39.30;;;33.75;;
60472;SDS011;46318;52.716;6.444;2024-03-07T08:15:30;36.97;;;32.92;;
60472;SDS011;46318;52.716;6.444;2024-03-07T08:17:57;41.85;;;35.03;;
60472;SDS011;46318;52.716;6.444;2024-03-07T08:20:24;39.90;;;33.47;;
60472;SDS011;46318;52.716;6.444;2024-03-07T08:22:52;35.70;;;31.80;;
60472;SDS011;46318;52.716;6.444;2024-03-07T08:25:20;38.58;;;34.38;;
60472;SDS011;46318;52.716;6.444;2024-03-07T08:27:49;39.65;;;34.72;;
60472;SDS011;46318;52.716;6.444;2024-03-07T08:30:17;39.38;;;35.08;;
60472;SDS011;46318;52.716;6.444;2024-03-07T08:32:44;37.30;;;33.40;;
60472;SDS011;46318;52.716;6.444;2024-03-07T08:35:17;36.65;;;32.63;;
60472;SDS011;46318;52.716;6.444;2024-03-07T08:37:43;38.35;;;33.90;;
60472;SDS011;46318;52.716;6.444;2024-03-07T08:40:11;36.20;;;32.33;;
60472;SDS011;46318;52.716;6.444;2024-03-07T08:42:50;39.17;;;34.80;;
60472;SDS011;46318;52.716;6.444;2024-03-07T08:45:19;37.67;;;33.42;;
60472;SDS011;46318;52.716;6.444;2024-03-07T08:47:46;40.35;;;34.63;;
60472;SDS011;46318;52.716;6.444;2024-03-07T08:50:13;40.08;;;35.38;;
60472;SDS011;46318;52.716;6.444;2024-03-07T08:52:40;38.88;;;34.25;;
60472;SDS011;46318;52.716;6.444;2024-03-07T08:55:06;39.72;;;35.47;;
60472;SDS011;46318;52.716;6.444;2024-03-07T08:57:40;41.53;;;37.00;;
60472;SDS011;46318;52.716;6.444;2024-03-07T09:00:09;45.83;;;38.60;;
60472;SDS011;46318;52.716;6.444;2024-03-07T09:02:40;44.60;;;36.85;;
60472;SDS011;46318;52.716;6.444;2024-03-07T09:05:07;45.50;;;38.90;;
60472;SDS011;46318;52.716;6.444;2024-03-07T09:07:35;40.53;;;36.10;;
60472;SDS011;46318;52.716;6.444;2024-03-07T09:10:01;42.28;;;37.70;;
60472;SDS011;46318;52.716;6.444;2024-03-07T09:12:27;46.60;;;39.95;;
60472;SDS011;46318;52.716;6.444;2024-03-07T09:14:53;44.63;;;39.22;;
60472;SDS011;46318;52.716;6.444;2024-03-07T09:17:21;46.95;;;40.45;;
60472;SDS011;46318;52.716;6.444;2024-03-07T09:19:47;48.38;;;40.63;;
60472;SDS011;46318;52.716;6.444;2024-03-07T09:22:12;42.70;;;37.78;;
60472;SDS011;46318;52.716;6.444;2024-03-07T09:24:38;44.70;;;38.17;;
60472;SDS011;46318;52.716;6.444;2024-03-07T09:27:04;43.83;;;37.05;;
60472;SDS011;46318;52.716;6.444;2024-03-07T09:29:30;44.17;;;36.95;;
60472;SDS011;46318;52.716;6.444;2024-03-07T09:31:56;47.10;;;38.58;;
60472;SDS011;46318;52.716;6.444;2024-03-07T09:34:25;44.13;;;37.22;;
60472;SDS011;46318;52.716;6.444;2024-03-07T09:36:51;43.83;;;36.83;;
60472;SDS011;46318;52.716;6.444;2024-03-07T09:39:17;46.00;;;35.40;;
60472;SDS011;46318;52.716;6.444;2024-03-07T09:41:46;49.38;;;38.17;;
60472;SDS011;46318;52.716;6.444;2024-03-07T09:44:12;47.22;;;38.83;;
60472;SDS011;46318;52.716;6.444;2024-03-07T09:46:48;50.63;;;40.03;;
60472;SDS011;46318;52.716;6.444;2024-03-07T09:49:16;52.40;;;41.40;;
60472;SDS011;46318;52.716;6.444;2024-03-07T09:51:43;50.63;;;39.72;;
60472;SDS011;46318;52.716;6.444;2024-03-07T09:54:10;48.05;;;37.80;;
60472;SDS011;46318;52.716;6.444;2024-03-07T09:56:37;53.22;;;39.45;;
60472;SDS011;46318;52.716;6.444;2024-03-07T09:59:04;54.22;;;41.50;;
60472;SDS011;46318;52.716;6.444;2024-03-07T10:01:38;52.33;;;39.47;;
60472;SDS011;46318;52.716;6.444;2024-03-07T10:04:08;50.38;;;39.85;;
60472;SDS011;46318;52.716;6.444;2024-03-07T10:06:42;52.55;;;39.25;;
60472;SDS011;46318;52.716;6.444;2024-03-07T10:09:11;49.35;;;37.85;;
60472;SDS011;46318;52.716;6.444;2024-03-07T10:11:42;49.53;;;36.42;;
60472;SDS011;46318;52.716;6.444;2024-03-07T10:14:09;50.92;;;38.28;;
60472;SDS011;46318;52.716;6.444;2024-03-07T10:16:35;47.25;;;36.65;;
60472;SDS011;46318;52.716;6.444;2024-03-07T10:19:04;44.63;;;35.72;;
60472;SDS011;46318;52.716;6.444;2024-03-07T10:21:30;45.20;;;35.40;;
60472;SDS011;46318;52.716;6.444;2024-03-07T10:24:05;43.40;;;33.42;;
60472;SDS011;46318;52.716;6.444;2024-03-07T10:26:35;46.22;;;34.55;;
60472;SDS011;46318;52.716;6.444;2024-03-07T10:29:03;42.47;;;34.40;;
60472;SDS011;46318;52.716;6.444;2024-03-07T10:31:33;44.13;;;35.53;;
60472;SDS011;46318;52.716;6.444;2024-03-07T10:34:00;42.22;;;34.05;;
60472;SDS011;46318;52.716;6.444;2024-03-07T10:36:32;44.15;;;34.92;;
60472;SDS011;46318;52.716;6.444;2024-03-07T10:39:01;43.33;;;33.55;;
60472;SDS011;46318;52.716;6.444;2024-03-07T10:41:36;43.58;;;34.15;;
60472;SDS011;46318;52.716;6.444;2024-03-07T10:44:07;40.28;;;32.35;;
60472;SDS011;46318;52.716;6.444;2024-03-07T10:46:35;42.42;;;34.17;;
60472;SDS011;46318;52.716;6.444;2024-03-07T10:49:01;42.28;;;33.28;;
60472;SDS011;46318;52.716;6.444;2024-03-07T10:51:33;40.88;;;31.65;;
60472;SDS011;46318;52.716;6.444;2024-03-07T10:57:11;38.75;;;31.95;;
60472;SDS011;46318;52.716;6.444;2024-03-07T10:59:57;41.25;;;32.22;;
60472;SDS011;46318;52.716;6.444;2024-03-07T11:02:49;38.88;;;31.45;;
60472;SDS011;46318;52.716;6.444;2024-03-07T11:05:20;40.50;;;31.55;;
60472;SDS011;46318;52.716;6.444;2024-03-07T11:07:51;40.10;;;30.40;;
60472;SDS011;46318;52.716;6.444;2024-03-07T11:10:18;40.05;;;32.10;;
60472;SDS011;46318;52.716;6.444;2024-03-07T11:12:45;41.60;;;32.17;;
60472;SDS011;46318;52.716;6.444;2024-03-07T11:15:16;38.88;;;30.48;;
60472;SDS011;46318;52.716;6.444;2024-03-07T11:17:45;40.42;;;32.33;;
60472;SDS011;46318;52.716;6.444;2024-03-07T11:22:46;40.50;;;32.05;;
60472;SDS011;46318;52.716;6.444;2024-03-07T11:25:12;39.28;;;30.10;;
60472;SDS011;46318;52.716;6.444;2024-03-07T11:27:38;38.50;;;30.48;;
60472;SDS011;46318;52.716;6.444;2024-03-07T11:30:07;40.28;;;32.50;;
60472;SDS011;46318;52.716;6.444;2024-03-07T11:32:36;39.53;;;31.05;;
60472;SDS011;46318;52.716;6.444;2024-03-07T11:35:04;37.40;;;30.38;;
60472;SDS011;46318;52.716;6.444;2024-03-07T11:37:39;38.28;;;30.23;;
60472;SDS011;46318;52.716;6.444;2024-03-07T11:40:14;37.33;;;30.13;;
60472;SDS011;46318;52.716;6.444;2024-03-07T11:42:58;35.28;;;29.33;;
60472;SDS011;46318;52.716;6.444;2024-03-07T11:45:30;37.60;;;30.52;;
60472;SDS011;46318;52.716;6.444;2024-03-07T11:48:03;36.35;;;29.30;;
60472;SDS011;46318;52.716;6.444;2024-03-07T11:50:37;32.33;;;28.23;;
60472;SDS011;46318;52.716;6.444;2024-03-07T11:53:07;32.47;;;27.73;;
60472;SDS011;46318;52.716;6.444;2024-03-07T11:55:34;34.75;;;28.88;;
60472;SDS011;46318;52.716;6.444;2024-03-07T11:58:19;36.80;;;29.30;;
60472;SDS011;46318;52.716;6.444;2024-03-07T12:00:46;34.30;;;28.02;;
60472;SDS011;46318;52.716;6.444;2024-03-07T12:03:17;35.83;;;28.85;;
60472;SDS011;46318;52.716;6.444;2024-03-07T12:05:48;32.67;;;27.00;;
60472;SDS011;46318;52.716;6.444;2024-03-07T12:08:16;33.63;;;28.88;;
60472;SDS011;46318;52.716;6.444;2024-03-07T12:10:43;33.50;;;28.42;;
60472;SDS011;46318;52.716;6.444;2024-03-07T12:13:13;34.85;;;27.50;;
60472;SDS011;46318;52.716;6.444;2024-03-07T12:15:44;33.85;;;27.02;;
60472;SDS011;46318;52.716;6.444;2024-03-07T12:18:10;36.65;;;29.83;;
60472;SDS011;46318;52.716;6.444;2024-03-07T12:20:42;35.22;;;27.55;;
60472;SDS011;46318;52.716;6.444;2024-03-07T12:23:15;33.70;;;28.00;;
60472;SDS011;46318;52.716;6.444;2024-03-07T12:25:44;33.70;;;27.90;;
60472;SDS011;46318;52.716;6.444;2024-03-07T12:28:14;34.10;;;27.23;;
60472;SDS011;46318;52.716;6.444;2024-03-07T12:33:14;32.58;;;26.85;;
60472;SDS011;46318;52.716;6.444;2024-03-07T12:35:45;34.03;;;27.38;;
60472;SDS011;46318;52.716;6.444;2024-03-07T12:38:14;32.80;;;26.88;;
60472;SDS011;46318;52.716;6.444;2024-03-07T12:40:44;34.90;;;28.25;;
60472;SDS011;46318;52.716;6.444;2024-03-07T12:43:16;34.97;;;26.48;;
60472;SDS011;46318;52.716;6.444;2024-03-07T12:48:19;29.10;;;24.02;;
60472;SDS011;46318;52.716;6.444;2024-03-07T12:50:46;30.52;;;23.67;;
60472;SDS011;46318;52.716;6.444;2024-03-07T12:53:22;24.75;;;20.52;;
60472;SDS011;46318;52.716;6.444;2024-03-07T12:55:50;26.30;;;21.60;;
60472;SDS011;46318;52.716;6.444;2024-03-07T12:58:17;24.75;;;21.65;;
60472;SDS011;46318;52.716;6.444;2024-03-07T13:00:45;24.13;;;20.88;;
60472;SDS011;46318;52.716;6.444;2024-03-07T13:03:13;24.20;;;21.00;;
60472;SDS011;46318;52.716;6.444;2024-03-07T13:05:42;24.38;;;20.13;;
60472;SDS011;46318;52.716;6.444;2024-03-07T13:08:08;25.33;;;22.27;;
60472;SDS011;46318;52.716;6.444;2024-03-07T13:10:43;31.27;;;21.58;;
60472;SDS011;46318;52.716;6.444;2024-03-07T13:13:10;26.77;;;22.67;;
60472;SDS011;46318;52.716;6.444;2024-03-07T13:15:36;29.42;;;23.35;;
60472;SDS011;46318;52.716;6.444;2024-03-07T13:18:07;33.55;;;24.77;;
60472;SDS011;46318;52.716;6.444;2024-03-07T13:20:34;29.17;;;23.02;;
60472;SDS011;46318;52.716;6.444;2024-03-07T13:23:01;29.02;;;24.85;;
60472;SDS011;46318;52.716;6.444;2024-03-07T13:25:28;29.73;;;23.77;;
60472;SDS011;46318;52.716;6.444;2024-03-07T13:30:49;32.20;;;25.73;;
60472;SDS011;46318;52.716;6.444;2024-03-07T13:33:16;31.58;;;24.95;;
60472;SDS011;46318;52.716;6.444;2024-03-07T13:35:42;35.60;;;27.20;;
60472;SDS011;46318;52.716;6.444;2024-03-07T13:38:08;29.63;;;24.88;;
60472;SDS011;46318;52.716;6.444;2024-03-07T13:40:34;29.73;;;24.85;;
60472;SDS011;46318;52.716;6.444;2024-03-07T13:43:06;30.17;;;23.85;;
60472;SDS011;46318;52.716;6.444;2024-03-07T13:45:36;29.60;;;23.98;;
60472;SDS011;46318;52.716;6.444;2024-03-07T13:48:06;31.60;;;24.95;;
60472;SDS011;46318;52.716;6.444;2024-03-07T13:50:35;31.88;;;25.40;;
60472;SDS011;46318;52.716;6.444;2024-03-07T13:53:03;27.95;;;23.17;;
60472;SDS011;46318;52.716;6.444;2024-03-07T13:55:33;29.45;;;23.60;;
60472;SDS011;46318;52.716;6.444;2024-03-07T14:01:38;31.60;;;23.52;;
60472;SDS011;46318;52.716;6.444;2024-03-07T14:14:09;33.00;;;24.75;;
60472;SDS011;46318;52.716;6.444;2024-03-07T14:20:36;35.55;;;25.40;;
60472;SDS011;46318;52.716;6.444;2024-03-07T14:23:41;34.60;;;26.23;;
60472;SDS011;46318;52.716;6.444;2024-03-07T14:27:03;29.92;;;24.10;;
60472;SDS011;46318;52.716;6.444;2024-03-07T14:29:50;32.13;;;25.42;;
60472;SDS011;46318;52.716;6.444;2024-03-07T14:32:21;37.72;;;26.88;;
60472;SDS011;46318;52.716;6.444;2024-03-07T14:34:54;34.10;;;25.65;;
60472;SDS011;46318;52.716;6.444;2024-03-07T14:40:45;33.65;;;25.20;;
60472;SDS011;46318;52.716;6.444;2024-03-07T14:43:14;33.22;;;25.10;;
60472;SDS011;46318;52.716;6.444;2024-03-07T14:45:42;31.10;;;24.38;;
60472;SDS011;46318;52.716;6.444;2024-03-07T14:48:08;31.05;;;24.02;;
60472;SDS011;46318;52.716;6.444;2024-03-07T14:50:40;28.60;;;23.20;;
60472;SDS011;46318;52.716;6.444;2024-03-07T14:53:08;27.20;;;22.58;;
60472;SDS011;46318;52.716;6.444;2024-03-07T14:55:34;29.98;;;23.90;;
60472;SDS011;46318;52.716;6.444;2024-03-07T14:58:01;29.60;;;23.02;;
60472;SDS011;46318;52.716;6.444;2024-03-07T15:00:27;31.77;;;23.25;;
60472;SDS011;46318;52.716;6.444;2024-03-07T15:02:58;32.80;;;24.58;;
60472;SDS011;46318;52.716;6.444;2024-03-07T15:05:25;30.73;;;24.90;;